createdAt,value
2023-05-03T00:02:12.524Z,12.12
2023-05-03T00:04:39.470Z,12.06
2023-05-03T00:07:06.857Z,12.05
2023-05-03T00:09:34.962Z,12.01
2023-05-03T00:12:01.992Z,11.98
2023-05-03T00:14:28.841Z,11.92
2023-05-03T00:16:55.728Z,11.89
2023-05-03T00:19:31.474Z,11.87
2023-05-03T00:21:58.863Z,11.80
2023-05-03T00:24:25.615Z,11.76
2023-05-03T00:26:52.211Z,11.70
2023-05-03T00:29:21.156Z,11.67
2023-05-03T00:31:47.779Z,11.68
2023-05-03T00:34:14.470Z,11.69
2023-05-03T00:36:41.066Z,11.67
2023-05-03T00:39:07.801Z,11.61
2023-05-03T00:41:34.530Z,11.56
2023-05-03T00:44:01.198Z,11.57
2023-05-03T00:46:28.010Z,11.56
2023-05-03T00:48:55.173Z,11.54
2023-05-03T00:51:22.778Z,11.52
2023-05-03T00:53:49.965Z,11.49
2023-05-03T00:56:25.724Z,11.47
2023-05-03T00:58:52.620Z,11.47
2023-05-03T01:01:19.347Z,11.46
2023-05-03T01:03:46.920Z,11.42
2023-05-03T01:06:25.420Z,11.37
2023-05-03T01:09:02.200Z,11.34
2023-05-03T01:11:42.230Z,11.31
2023-05-03T01:14:41.239Z,11.30
2023-05-03T01:17:15.413Z,11.24
2023-05-03T01:19:56.445Z,11.22
2023-05-03T01:22:37.477Z,11.15
2023-05-03T01:25:09.195Z,11.13
2023-05-03T01:27:37.093Z,11.11
2023-05-03T01:30:12.558Z,11.08
2023-05-03T01:32:42.169Z,11.04
2023-05-03T01:35:15.884Z,11.02
2023-05-03T01:37:43.294Z,11.01
2023-05-03T01:40:16.715Z,10.99
2023-05-03T01:42:44.062Z,10.98
2023-05-03T01:45:12.136Z,10.97
2023-05-03T01:47:38.874Z,10.96
2023-05-03T01:50:05.936Z,10.93
2023-05-03T01:52:33.146Z,10.89
2023-05-03T01:55:00.365Z,10.87
2023-05-03T01:57:27.061Z,10.83
2023-05-03T01:59:53.714Z,10.79
2023-05-03T02:02:20.657Z,10.77
2023-05-03T02:04:47.469Z,10.78
2023-05-03T02:07:14.300Z,10.76
2023-05-03T02:09:41.276Z,10.72
2023-05-03T02:12:08.189Z,10.67
2023-05-03T02:14:34.945Z,10.66
2023-05-03T02:17:03.187Z,10.63
2023-05-03T02:19:30.056Z,10.62
2023-05-03T02:21:57.127Z,10.57
2023-05-03T02:24:23.816Z,10.52
2023-05-03T02:26:50.968Z,10.49
2023-05-03T02:29:17.864Z,10.44
2023-05-03T02:31:45.367Z,10.39
2023-05-03T02:34:12.370Z,10.35
2023-05-03T02:36:39.308Z,10.31
2023-05-03T02:39:05.990Z,10.29
2023-05-03T02:41:33.285Z,10.28
2023-05-03T02:44:00.990Z,10.21
2023-05-03T02:46:27.830Z,10.16
2023-05-03T02:48:54.494Z,10.11
2023-05-03T02:51:21.222Z,10.13
2023-05-03T02:53:48.142Z,10.11
2023-05-03T02:56:14.929Z,10.12
2023-05-03T02:58:41.672Z,10.14
2023-05-03T03:01:08.512Z,10.12
2023-05-03T03:03:35.312Z,10.09
2023-05-03T03:06:02.265Z,10.03
2023-05-03T03:08:29.046Z,10.01
2023-05-03T03:10:59.915Z,9.96
2023-05-03T03:13:26.567Z,9.91
2023-05-03T03:15:53.390Z,9.93
2023-05-03T03:18:20.122Z,9.94
2023-05-03T03:20:46.912Z,9.95
2023-05-03T03:23:13.551Z,9.94
2023-05-03T03:25:41.858Z,9.91
2023-05-03T03:28:08.796Z,9.86
2023-05-03T03:30:35.971Z,9.86
2023-05-03T03:33:16.351Z,9.88
2023-05-03T03:35:43.230Z,9.86
2023-05-03T03:38:11.597Z,9.83
2023-05-03T03:40:45.277Z,9.80
2023-05-03T03:43:11.971Z,9.80
2023-05-03T03:45:39.987Z,9.79
2023-05-03T03:48:07.382Z,9.82
2023-05-03T03:50:34.500Z,9.84
2023-05-03T03:53:01.380Z,9.88
2023-05-03T03:55:28.471Z,9.92
2023-05-03T03:57:57.806Z,9.94
2023-05-03T04:00:26.226Z,9.95
2023-05-03T04:03:04.092Z,9.94
2023-05-03T04:05:32.675Z,9.94
2023-05-03T04:07:59.505Z,9.99
2023-05-03T04:10:28.995Z,10.01
2023-05-03T04:12:55.982Z,9.99
2023-05-03T04:15:22.880Z,10.02
2023-05-03T04:17:50.512Z,10.04
2023-05-03T04:20:17.757Z,10.01
2023-05-03T04:22:47.756Z,9.95
2023-05-03T04:25:17.382Z,9.99
2023-05-03T04:27:49.514Z,10.11
2023-05-03T04:30:17.523Z,10.16
2023-05-03T04:32:48.431Z,10.24
2023-05-03T04:35:15.881Z,10.26
2023-05-03T04:37:46.893Z,10.31
2023-05-03T04:40:19.721Z,10.42
2023-05-03T04:42:52.053Z,10.54
2023-05-03T04:45:20.797Z,10.62
2023-05-03T04:47:48.329Z,10.60
2023-05-03T04:50:15.078Z,10.57
2023-05-03T04:52:45.196Z,10.61
2023-05-03T04:55:12.593Z,10.64
2023-05-03T04:57:39.294Z,10.68
2023-05-03T05:00:11.928Z,10.67
2023-05-03T05:02:43.724Z,10.63
2023-05-03T05:05:11.339Z,10.61
2023-05-03T05:07:38.080Z,10.61
2023-05-03T05:10:05.713Z,10.65
2023-05-03T05:12:32.864Z,10.63
2023-05-03T05:15:02.283Z,10.54
2023-05-03T05:17:29.317Z,10.44
2023-05-03T05:19:56.272Z,10.39
2023-05-03T05:22:22.914Z,10.43
2023-05-03T05:24:55.221Z,10.43
2023-05-03T05:27:23.777Z,10.30
2023-05-03T05:29:52.621Z,10.13
2023-05-03T05:32:20.047Z,10.05
2023-05-03T05:34:53.003Z,10.15
2023-05-03T05:37:23.875Z,10.35
2023-05-03T05:39:51.419Z,10.51
2023-05-03T05:42:19.928Z,10.63
2023-05-03T05:44:46.632Z,10.65
2023-05-03T05:47:13.659Z,10.58
2023-05-03T05:49:43.676Z,10.54
2023-05-03T05:52:11.655Z,10.74
2023-05-03T05:54:38.893Z,10.94
2023-05-03T05:57:05.703Z,11.05
2023-05-03T05:59:32.402Z,11.08
2023-05-03T06:02:00.342Z,11.03
2023-05-03T06:04:27.832Z,10.99
2023-05-03T06:06:56.091Z,10.95
2023-05-03T06:09:24.749Z,10.96
2023-05-03T06:11:57.422Z,11.06
2023-05-03T06:14:26.233Z,11.40
2023-05-03T06:16:53.870Z,11.96
2023-05-03T06:19:20.970Z,12.37
2023-05-03T06:21:47.813Z,12.88
2023-05-03T06:24:21.046Z,13.57
2023-05-03T06:26:50.510Z,14.38
2023-05-03T06:29:18.306Z,14.04
2023-05-03T06:31:45.598Z,13.70
2023-05-03T06:34:13.176Z,14.44
2023-05-03T06:36:41.821Z,14.43
2023-05-03T06:39:09.570Z,14.15
2023-05-03T06:41:36.222Z,14.26
2023-05-03T06:44:04.293Z,14.17
2023-05-03T06:46:31.460Z,14.06
2023-05-03T06:48:58.256Z,13.93
2023-05-03T06:51:30.289Z,13.68
2023-05-03T06:54:01.924Z,14.00
2023-05-03T06:56:28.677Z,16.00
2023-05-03T06:58:55.510Z,16.66
2023-05-03T07:01:23.250Z,16.22
2023-05-03T07:03:50.126Z,15.75
2023-05-03T07:06:16.950Z,15.57
2023-05-03T07:08:43.964Z,15.56
2023-05-03T07:11:10.916Z,15.69
2023-05-03T07:13:37.561Z,15.96
2023-05-03T07:16:04.511Z,16.33
2023-05-03T07:18:31.324Z,16.72
2023-05-03T07:20:57.942Z,16.89
2023-05-03T07:23:25.396Z,17.07
2023-05-03T07:25:53.965Z,17.21
2023-05-03T07:28:20.629Z,17.22
2023-05-03T07:30:47.283Z,17.07
2023-05-03T07:33:14.056Z,16.76
2023-05-03T07:35:40.788Z,16.37
2023-05-03T07:38:07.541Z,16.03
2023-05-03T07:40:34.412Z,15.61
2023-05-03T07:43:01.308Z,15.28
2023-05-03T07:45:28.136Z,15.09
2023-05-03T07:47:56.952Z,15.00
2023-05-03T07:50:23.695Z,15.09
2023-05-03T07:52:51.815Z,15.26
2023-05-03T07:55:20.105Z,15.57
2023-05-03T07:57:46.841Z,15.90
2023-05-03T08:00:14.108Z,16.32
2023-05-03T08:02:41.258Z,16.98
2023-05-03T08:05:09.976Z,17.63
2023-05-03T08:07:36.971Z,18.41
2023-05-03T08:10:04.611Z,19.48
2023-05-03T08:12:32.704Z,20.54
2023-05-03T08:14:59.536Z,22.59
2023-05-03T08:17:26.397Z,25.19
2023-05-03T08:19:55.747Z,26.53
2023-05-03T08:22:25.274Z,26.93
2023-05-03T08:24:53.508Z,28.90
2023-05-03T08:27:20.095Z,29.99
2023-05-03T08:29:47.221Z,29.09
2023-05-03T08:32:14.268Z,27.90
2023-05-03T08:34:41.448Z,27.54
2023-05-03T08:37:08.177Z,29.28
2023-05-03T08:39:34.887Z,32.39
2023-05-03T08:42:07.178Z,33.92
2023-05-03T08:44:38.116Z,34.42
2023-05-03T08:47:06.177Z,35.14
2023-05-03T08:49:35.257Z,35.26
2023-05-03T08:52:02.807Z,34.90
2023-05-03T08:54:29.608Z,36.11
2023-05-03T08:56:56.215Z,38.68
2023-05-03T08:59:22.927Z,40.62
2023-05-03T09:01:49.540Z,42.52
2023-05-03T09:04:17.358Z,43.73
2023-05-03T09:06:44.159Z,44.37
2023-05-03T09:09:11.054Z,44.93
2023-05-03T09:11:39.192Z,45.34
2023-05-03T09:14:17.111Z,45.82
2023-05-03T09:16:45.475Z,46.20
2023-05-03T09:19:14.058Z,46.14
2023-05-03T09:21:42.151Z,46.68
2023-05-03T09:24:17.151Z,47.65
2023-05-03T09:26:45.546Z,48.72
2023-05-03T09:29:30.584Z,48.93
2023-05-03T09:32:06.290Z,49.47
2023-05-03T09:34:33.967Z,49.83
2023-05-03T09:37:00.933Z,49.91
2023-05-03T09:39:27.741Z,49.72
2023-05-03T09:41:54.466Z,49.82
2023-05-03T09:44:41.373Z,49.74
2023-05-03T09:47:08.222Z,49.78
2023-05-03T09:49:36.931Z,49.79
2023-05-03T09:52:04.656Z,49.83
2023-05-03T09:54:31.545Z,50.26
2023-05-03T09:56:59.183Z,50.80
2023-05-03T09:59:25.860Z,50.13
2023-05-03T10:01:56.508Z,49.29
2023-05-03T10:04:26.572Z,49.09
2023-05-03T10:07:07.714Z,49.83
2023-05-03T10:09:40.239Z,50.31
2023-05-03T10:12:16.417Z,51.14
2023-05-03T10:14:48.450Z,52.02
2023-05-03T10:17:42.942Z,51.94
2023-05-03T10:20:23.044Z,51.61
2023-05-03T10:23:05.119Z,52.34
2023-05-03T10:25:33.249Z,52.50
2023-05-03T10:28:12.039Z,52.44
2023-05-03T10:30:40.480Z,52.40
2023-05-03T10:33:10.295Z,52.55
2023-05-03T10:35:40.403Z,52.58
2023-05-03T10:38:17.529Z,52.35
2023-05-03T10:40:44.587Z,52.09
2023-05-03T10:43:32.459Z,52.82
2023-05-03T10:46:06.565Z,53.11
2023-05-03T10:48:34.644Z,52.85
2023-05-03T10:51:36.569Z,53.10
2023-05-03T10:54:03.434Z,53.72
2023-05-03T10:56:30.088Z,54.22
2023-05-03T10:58:58.825Z,54.64
2023-05-03T11:01:28.008Z,54.35
2023-05-03T11:04:36.738Z,54.91
2023-05-03T11:07:04.623Z,54.48
2023-05-03T11:09:35.177Z,54.78
2023-05-03T11:12:06.887Z,54.60
2023-05-03T11:14:33.757Z,54.40
2023-05-03T11:17:01.295Z,54.36
2023-05-03T11:19:28.921Z,53.90
2023-05-03T11:21:56.253Z,54.20
2023-05-03T11:24:22.964Z,54.04
2023-05-03T11:26:49.602Z,53.62
2023-05-03T11:29:17.696Z,53.32
2023-05-03T11:31:44.703Z,52.94
2023-05-03T11:34:12.753Z,52.89
2023-05-03T11:36:40.798Z,52.26
2023-05-03T11:39:08.109Z,51.88
2023-05-03T11:41:35.612Z,51.32
2023-05-03T11:44:15.123Z,50.66
2023-05-03T11:46:45.874Z,50.40
2023-05-03T11:49:17.874Z,50.27
2023-05-03T11:51:47.861Z,49.90
2023-05-03T11:54:25.300Z,49.39
2023-05-03T11:56:57.896Z,48.98
2023-05-03T11:59:39.065Z,48.94
2023-05-03T12:02:07.938Z,48.95
2023-05-03T12:04:41.394Z,48.91
2023-05-03T12:07:11.287Z,48.73
2023-05-03T12:09:40.951Z,48.06
2023-05-03T12:12:10.473Z,44.67
2023-05-03T12:15:27.042Z,39.34
2023-05-03T12:18:00.200Z,36.32
2023-05-03T12:23:05.158Z,32.42
2023-05-03T12:25:34.100Z,31.34
2023-05-03T12:28:19.412Z,30.43
2023-05-03T12:30:47.074Z,29.64
2023-05-03T12:33:16.262Z,29.24
2023-05-03T12:35:46.678Z,28.76
2023-05-03T12:38:16.673Z,28.14
2023-05-03T12:40:45.556Z,27.87
2023-05-03T12:43:12.715Z,27.64
2023-05-03T12:45:40.903Z,27.13
2023-05-03T12:48:09.160Z,26.78
2023-05-03T12:50:38.867Z,26.60
2023-05-03T12:53:09.313Z,26.52
2023-05-03T12:55:43.212Z,26.52
2023-05-03T13:00:53.535Z,26.37
2023-05-03T13:03:33.487Z,26.12
2023-05-03T13:06:12.505Z,26.09
2023-05-03T13:08:48.802Z,26.05
2023-05-03T13:11:19.285Z,25.92
2023-05-03T13:13:46.665Z,25.93
2023-05-03T13:16:14.500Z,26.03
2023-05-03T13:18:42.840Z,26.00
2023-05-03T13:21:10.538Z,26.04
2023-05-03T13:23:39.350Z,26.05
2023-05-03T13:26:07.110Z,25.78
2023-05-03T13:28:34.375Z,25.58
2023-05-03T13:31:01.841Z,25.54
2023-05-03T13:33:29.363Z,25.59
2023-05-03T13:35:56.626Z,25.61
2023-05-03T13:38:23.398Z,25.69
2023-05-03T13:40:50.159Z,25.63
2023-05-03T13:43:17.028Z,25.63
2023-05-03T13:45:43.814Z,25.66
2023-05-03T13:48:10.743Z,25.58
2023-05-03T13:50:45.610Z,25.77
2023-05-03T13:53:12.297Z,25.78
2023-05-03T13:55:39.035Z,25.66
2023-05-03T13:58:05.745Z,25.50
2023-05-03T14:00:32.627Z,25.39
2023-05-03T14:02:59.422Z,25.40
2023-05-03T14:05:26.468Z,25.37
2023-05-03T14:07:53.358Z,25.29
2023-05-03T14:10:20.199Z,25.30
2023-05-03T14:12:47.225Z,25.34
2023-05-03T14:15:15.009Z,25.33
2023-05-03T14:17:43.659Z,25.22
2023-05-03T14:20:12.125Z,25.16
2023-05-03T14:22:41.584Z,25.21
2023-05-03T14:25:08.451Z,25.38
2023-05-03T14:27:35.235Z,25.30
2023-05-03T14:30:02.542Z,25.27
2023-05-03T14:32:37.229Z,25.27
2023-05-03T14:35:04.237Z,25.34
2023-05-03T14:37:31.292Z,25.30
2023-05-03T14:39:58.752Z,25.24
2023-05-03T14:42:30.264Z,25.17
2023-05-03T14:45:00.126Z,25.11
2023-05-03T14:47:27.471Z,25.19
2023-05-03T14:49:54.558Z,25.14
2023-05-03T14:52:21.322Z,24.95
2023-05-03T14:54:48.265Z,24.88
2023-05-03T14:57:15.136Z,25.00
2023-05-03T14:59:42.170Z,25.08
2023-05-03T15:02:10.194Z,25.06
2023-05-03T15:04:40.419Z,25.05
2023-05-03T15:07:07.482Z,25.01
2023-05-03T15:09:36.189Z,24.92
2023-05-03T15:12:03.942Z,24.91
2023-05-03T15:14:31.277Z,24.87
2023-05-03T15:16:58.221Z,24.76
2023-05-03T15:19:26.731Z,24.71
2023-05-03T15:21:53.684Z,24.65
2023-05-03T15:24:21.717Z,24.68
2023-05-03T15:26:48.582Z,24.70
2023-05-03T15:29:16.126Z,24.81
2023-05-03T15:31:43.713Z,24.91
2023-05-03T15:34:13.169Z,25.00
2023-05-03T15:36:40.791Z,24.97
2023-05-03T15:39:07.855Z,24.97
2023-05-03T15:41:34.599Z,24.97
2023-05-03T15:44:05.236Z,24.91
2023-05-03T15:46:32.813Z,24.78
2023-05-03T15:48:59.708Z,24.57
2023-05-03T15:51:27.771Z,24.44
2023-05-03T15:53:54.564Z,24.37
2023-05-03T15:56:24.517Z,24.38
2023-05-03T15:58:51.659Z,24.26
2023-05-03T16:01:19.300Z,24.10
2023-05-03T16:03:46.283Z,24.08
2023-05-03T16:06:17.855Z,24.09
2023-05-03T16:08:45.076Z,24.01
2023-05-03T16:11:12.842Z,23.98
2023-05-03T16:13:39.652Z,23.99
2023-05-03T16:16:06.984Z,23.92
2023-05-03T16:18:34.012Z,23.79
2023-05-03T16:21:01.738Z,23.67
2023-05-03T16:23:28.568Z,23.61
2023-05-03T16:25:55.214Z,23.61
2023-05-03T16:28:22.231Z,23.65
2023-05-03T16:30:48.854Z,23.63
2023-05-03T16:33:15.624Z,23.63
2023-05-03T16:35:42.360Z,23.63
2023-05-03T16:38:09.012Z,23.61
2023-05-03T16:40:36.951Z,23.58
2023-05-03T16:43:06.420Z,23.48
2023-05-03T16:45:33.291Z,23.30
2023-05-03T16:48:01.376Z,23.20
2023-05-03T16:50:45.157Z,23.15
2023-05-03T16:53:12.274Z,23.08
2023-05-03T16:56:12.866Z,23.01
2023-05-03T17:05:47.128Z,22.62
2023-05-03T17:12:25.145Z,22.41
2023-05-03T17:14:51.999Z,22.39
2023-05-03T17:17:18.763Z,22.35
2023-05-03T17:19:45.523Z,22.22
2023-05-03T17:22:12.175Z,22.08
2023-05-03T17:24:38.967Z,22.01
2023-05-03T17:27:09.440Z,21.98
2023-05-03T17:29:36.544Z,21.92
2023-05-03T17:32:04.038Z,21.86
2023-05-03T17:34:31.281Z,21.75
2023-05-03T17:36:59.241Z,21.71
2023-05-03T17:39:26.036Z,21.67
2023-05-03T17:41:53.884Z,21.64
2023-05-03T17:44:22.959Z,21.57
2023-05-03T17:46:50.275Z,21.51
2023-05-03T17:49:17.223Z,21.45
2023-05-03T17:51:44.067Z,21.43
2023-05-03T17:54:10.752Z,21.30
2023-05-03T17:56:37.424Z,21.17
2023-05-03T17:59:04.145Z,21.03
2023-05-03T18:01:30.978Z,20.95
2023-05-03T18:03:57.896Z,20.85
2023-05-03T18:06:24.806Z,20.77
2023-05-03T18:08:51.801Z,20.69
2023-05-03T18:11:18.838Z,20.63
2023-05-03T18:13:45.905Z,20.56
2023-05-03T18:16:12.779Z,20.54
2023-05-03T18:18:39.627Z,20.58
2023-05-03T18:21:06.671Z,20.58
2023-05-03T18:23:35.491Z,20.53
2023-05-03T18:26:02.374Z,20.51
2023-05-03T18:28:29.803Z,20.43
2023-05-03T18:30:56.659Z,20.31
2023-05-03T18:33:23.881Z,20.22
2023-05-03T18:35:52.310Z,20.14
2023-05-03T18:38:21.389Z,20.17
2023-05-03T18:40:49.441Z,20.10
2023-05-03T18:43:17.070Z,20.08
2023-05-03T18:45:45.600Z,20.04
2023-05-03T18:48:12.697Z,19.94
2023-05-03T18:50:39.764Z,19.78
2023-05-03T18:53:06.828Z,19.67
2023-05-03T18:55:33.764Z,19.61
2023-05-03T18:58:00.677Z,19.58
2023-05-03T19:00:27.842Z,19.55
2023-05-03T19:02:54.609Z,19.46
2023-05-03T19:05:21.432Z,19.38
2023-05-03T19:07:48.741Z,19.30
2023-05-03T19:10:16.286Z,19.25
2023-05-03T19:12:44.278Z,19.23
2023-05-03T19:15:12.233Z,19.23
2023-05-03T19:17:41.868Z,19.21
2023-05-03T19:20:10.491Z,19.17
2023-05-03T19:22:37.774Z,19.11
2023-05-03T19:25:05.506Z,19.06
2023-05-03T19:27:34.321Z,19.06
2023-05-03T19:30:01.163Z,19.09
2023-05-03T19:32:28.186Z,19.10
2023-05-03T19:34:55.020Z,19.05
2023-05-03T19:37:21.828Z,18.99
2023-05-03T19:39:48.623Z,18.93
2023-05-03T19:42:15.759Z,18.89
2023-05-03T19:44:42.440Z,18.86
2023-05-03T19:47:09.221Z,18.82
2023-05-03T19:49:36.004Z,18.77
2023-05-03T19:52:04.670Z,18.69
2023-05-03T19:54:32.964Z,18.64
2023-05-03T19:57:06.462Z,18.61
2023-05-03T19:59:33.989Z,18.56
2023-05-03T20:02:00.918Z,18.46
2023-05-03T20:04:27.739Z,18.43
2023-05-03T20:06:54.381Z,18.41
2023-05-03T20:09:23.421Z,18.39
2023-05-03T20:11:51.369Z,18.34
2023-05-03T20:14:18.664Z,18.29
2023-05-03T20:16:45.458Z,18.26
2023-05-03T20:19:13.267Z,18.21
2023-05-03T20:21:40.015Z,18.17
2023-05-03T20:24:10.689Z,18.08
2023-05-03T20:26:41.235Z,17.98
2023-05-03T20:29:09.124Z,17.88
2023-05-03T20:31:38.779Z,17.78
2023-05-03T20:34:05.420Z,17.63
2023-05-03T20:36:32.685Z,17.53
2023-05-03T20:38:59.688Z,17.51
2023-05-03T20:41:26.762Z,17.50
2023-05-03T20:43:54.914Z,17.49
2023-05-03T20:46:21.895Z,17.48
2023-05-03T20:48:48.875Z,17.46
2023-05-03T20:51:15.644Z,17.43
2023-05-03T20:53:42.541Z,17.39
2023-05-03T20:56:09.430Z,17.37
2023-05-03T20:58:36.377Z,17.35
2023-05-03T21:01:08.254Z,17.31
2023-05-03T21:03:35.303Z,17.23
2023-05-03T21:06:02.638Z,17.14
2023-05-03T21:08:29.296Z,17.05
2023-05-03T21:10:56.356Z,17.01
2023-05-03T21:13:23.113Z,16.99
2023-05-03T21:15:50.920Z,16.99
2023-05-03T21:18:18.835Z,17.01
2023-05-03T21:20:45.746Z,16.99
2023-05-03T21:23:13.334Z,16.97
2023-05-03T21:25:40.115Z,16.97
2023-05-03T21:28:06.953Z,16.97
2023-05-03T21:30:33.605Z,16.96
2023-05-03T21:33:03.031Z,16.94
2023-05-03T21:35:29.797Z,16.90
2023-05-03T21:37:56.625Z,16.87
2023-05-03T21:40:23.509Z,16.86
2023-05-03T21:42:52.508Z,16.75
2023-05-03T21:45:19.840Z,16.65
2023-05-03T21:47:46.915Z,16.57
2023-05-03T21:50:14.136Z,16.51
2023-05-03T21:52:41.379Z,16.47
2023-05-03T21:55:08.933Z,16.43
2023-05-03T21:57:36.828Z,16.41
2023-05-03T22:00:05.622Z,16.35
2023-05-03T22:02:35.474Z,16.29
2023-05-03T22:05:02.503Z,16.24
2023-05-03T22:07:29.362Z,16.22
2023-05-03T22:09:56.057Z,16.20
2023-05-03T22:12:24.587Z,16.16
2023-05-03T22:14:52.645Z,16.12
2023-05-03T22:17:19.988Z,16.08
2023-05-03T22:19:46.893Z,16.03
2023-05-03T22:22:13.538Z,15.99
2023-05-03T22:24:41.031Z,15.95
2023-05-03T22:27:07.827Z,15.93
2023-05-03T22:29:34.457Z,15.89
2023-05-03T22:32:01.258Z,15.80
2023-05-03T22:34:27.975Z,15.76
2023-05-03T22:36:54.871Z,15.77
2023-05-03T22:39:21.997Z,15.76
2023-05-03T22:41:48.629Z,15.74
2023-05-03T22:44:15.466Z,15.76
2023-05-03T22:46:42.694Z,15.75
2023-05-03T22:49:09.834Z,15.75
2023-05-03T22:51:36.557Z,15.72
2023-05-03T22:54:03.321Z,15.68
2023-05-03T22:56:30.107Z,15.65
2023-05-03T22:58:56.762Z,15.59
2023-05-03T23:01:26.015Z,15.56
2023-05-03T23:03:52.804Z,15.49
2023-05-03T23:06:19.594Z,15.42
2023-05-03T23:08:46.367Z,15.36
2023-05-03T23:11:13.512Z,15.32
2023-05-03T23:13:40.371Z,15.31
2023-05-03T23:16:07.978Z,15.31
2023-05-03T23:18:34.638Z,15.29
2023-05-03T23:21:01.670Z,15.29
2023-05-03T23:23:29.022Z,15.25
2023-05-03T23:25:56.016Z,15.23
2023-05-03T23:28:22.988Z,15.22
2023-05-03T23:30:50.930Z,15.21
2023-05-03T23:33:18.045Z,15.20
2023-05-03T23:35:47.732Z,15.16
2023-05-03T23:38:14.771Z,15.12
2023-05-03T23:40:41.662Z,15.09
2023-05-03T23:43:08.615Z,15.10
2023-05-03T23:45:35.665Z,15.09
2023-05-03T23:48:02.612Z,15.04
2023-05-03T23:50:29.266Z,14.98
2023-05-03T23:52:56.050Z,14.95
2023-05-03T23:55:22.762Z,14.94
2023-05-03T23:57:50.600Z,14.90
